Time;durP1;ratioP1;P1;durP2;ratioP2;P2;SDS_P1;SDS_P2;PMS_P1;PMS_P2;Temp;Humidity;BMP_temperature;BMP_pressure;BME280_temperature;BME280_humidity;BME280_pressure;Samples;Min_cycle;Max_cycle;Signal;HPM_P1;HPM_P2
2021/12/20 00:01:08;;;;;;;14.83;8.30;;;5.50;99.90;;;;;;5050740;28;20257;-65
2021/12/20 00:03:35;;;;;;;15.37;8.17;;;5.50;99.90;;;;;;5049909;28;20264;-65
2021/12/20 00:06:01;;;;;;;13.93;8.77;;;5.50;99.90;;;;;;5050841;28;20680;-65
2021/12/20 00:08:28;;;;;;;15.53;8.10;;;5.50;99.90;;;;;;5033348;28;20197;-64
2021/12/20 00:10:55;;;;;;;16.43;8.90;;;5.60;99.90;;;;;;5031021;28;20260;-64
2021/12/20 00:13:22;;;;;;;14.10;8.67;;;5.60;99.90;;;;;;5030600;28;20669;-64
2021/12/20 00:15:48;;;;;;;16.50;8.43;;;5.60;99.90;;;;;;5030962;28;20182;-65
2021/12/20 00:18:14;;;;;;;14.20;8.57;;;5.60;99.90;;;;;;5030647;28;20740;-65
2021/12/20 00:20:40;;;;;;;13.67;7.77;;;5.70;99.90;;;;;;5030910;28;20268;-65
2021/12/20 00:23:06;;;;;;;15.80;8.60;;;5.70;99.90;;;;;;5030964;28;20213;-65
2021/12/20 00:25:32;;;;;;;14.33;8.90;;;5.70;99.90;;;;;;5030706;28;20205;-64
2021/12/20 00:27:58;;;;;;;15.93;9.50;;;5.70;99.90;;;;;;5030823;28;20166;-65
2021/12/20 00:30:24;;;;;;;14.43;8.97;;;5.70;99.90;;;;;;5030422;28;20172;-64
2021/12/20 00:32:50;;;;;;;16.40;9.00;;;5.70;99.90;;;;;;5049483;28;20181;-65
2021/12/20 00:35:18;;;;;;;12.27;8.13;;;5.70;99.90;;;;;;5050530;28;20674;-65
2021/12/20 00:40:28;;;;;;;18.63;9.70;;;5.70;99.90;;;;;;5032087;28;20181;-65
2021/12/20 00:42:57;;;;;;;16.57;8.80;;;5.70;99.90;;;;;;5030783;28;20181;-65
2021/12/20 00:45:29;;;;;;;12.80;7.90;;;5.70;99.90;;;;;;5030544;28;20680;-65
2021/12/20 00:47:55;;;;;;;14.20;8.17;;;5.70;99.90;;;;;;5039446;28;20181;-65
2021/12/20 00:50:22;;;;;;;13.33;7.73;;;5.70;99.90;;;;;;5050437;28;20174;-65
2021/12/20 00:52:49;;;;;;;16.50;8.00;;;5.80;99.90;;;;;;5050464;28;20215;-65
2021/12/20 00:55:17;;;;;;;13.23;8.40;;;5.80;99.90;;;;;;5050604;28;20173;-65
2021/12/20 00:57:47;;;;;;;12.47;7.57;;;5.80;99.90;;;;;;5050202;28;20238;-65
2021/12/20 01:00:16;;;;;;;11.87;7.37;;;5.80;99.90;;;;;;5049222;28;20181;-64
2021/12/20 01:02:42;;;;;;;15.87;8.70;;;5.80;99.90;;;;;;5053114;28;20212;-65
2021/12/20 01:05:09;;;;;;;14.57;8.70;;;5.90;99.90;;;;;;5054180;28;20212;-65
2021/12/20 01:07:34;;;;;;;15.47;9.30;;;5.90;99.90;;;;;;5053870;28;20169;-65
2021/12/20 01:10:05;;;;;;;18.17;8.87;;;5.90;99.90;;;;;;5054229;28;20181;-65
2021/12/20 01:12:41;;;;;;;16.30;8.87;;;5.90;99.90;;;;;;5051692;28;20173;-65
2021/12/20 01:15:09;;;;;;;15.83;9.37;;;5.90;99.90;;;;;;5051520;28;20185;-66
2021/12/20 01:17:35;;;;;;;16.90;9.60;;;5.90;99.90;;;;;;5053984;28;20173;-66
2021/12/20 01:20:01;;;;;;;14.80;8.67;;;5.90;99.90;;;;;;5053929;28;20180;-64
2021/12/20 01:22:26;;;;;;;17.73;9.80;;;5.90;99.90;;;;;;5053819;28;20161;-64
2021/12/20 01:24:52;;;;;;;15.00;8.20;;;5.90;99.90;;;;;;5053602;28;20233;-65
2021/12/20 01:27:18;;;;;;;16.03;9.07;;;5.90;99.90;;;;;;5053710;28;20263;-65
2021/12/20 01:29:44;;;;;;;16.37;9.37;;;5.90;99.90;;;;;;5053655;28;20173;-65
2021/12/20 01:32:09;;;;;;;18.60;9.63;;;5.90;99.90;;;;;;5053895;28;20173;-64
2021/12/20 01:34:35;;;;;;;16.77;9.73;;;5.90;99.90;;;;;;5034241;28;20536;-64
2021/12/20 01:37:01;;;;;;;17.57;9.87;;;5.90;99.90;;;;;;5033680;28;20200;-65
2021/12/20 01:39:27;;;;;;;16.17;9.20;;;5.90;99.90;;;;;;5033568;28;20197;-63
2021/12/20 01:41:53;;;;;;;16.57;9.90;;;5.80;99.90;;;;;;5033635;28;20170;-64
2021/12/20 01:44:21;;;;;;;19.10;9.70;;;5.80;99.90;;;;;;5033350;28;20201;-64
2021/12/20 01:46:47;;;;;;;17.20;9.67;;;5.80;99.90;;;;;;5033904;28;20170;-64
2021/12/20 01:49:15;;;;;;;18.43;10.13;;;5.90;99.90;;;;;;5031936;28;20166;-64
2021/12/20 01:54:15;;;;;;;20.03;10.70;;;5.80;99.90;;;;;;5041016;28;20235;-64
2021/12/20 01:56:43;;;;;;;21.90;11.20;;;5.80;99.90;;;;;;5053205;28;20200;-59
2021/12/20 01:59:10;;;;;;;19.67;11.00;;;5.80;99.90;;;;;;5053085;28;20193;-60
2021/12/20 02:01:37;;;;;;;20.17;11.33;;;5.80;99.90;;;;;;5053027;28;20729;-59
2021/12/20 02:04:07;;;;;;;21.87;11.33;;;5.90;99.90;;;;;;5042131;28;20213;-59
2021/12/20 02:06:39;;;;;;;17.57;10.83;;;5.90;99.90;;;;;;5033644;28;20196;-60
2021/12/20 02:09:12;;;;;;;20.33;10.77;;;5.90;99.90;;;;;;5033169;28;20185;-59
2021/12/20 02:11:40;;;;;;;18.77;11.00;;;5.90;99.90;;;;;;5032702;28;20233;-59
2021/12/20 02:14:07;;;;;;;20.13;10.73;;;5.90;99.90;;;;;;5037167;28;20327;-59
2021/12/20 02:16:34;;;;;;;16.87;9.80;;;5.90;99.90;;;;;;5053036;28;20195;-59
2021/12/20 02:19:09;;;;;;;19.63;10.77;;;6.00;99.90;;;;;;5043195;28;20235;-59
2021/12/20 02:21:35;;;;;;;19.53;10.83;;;6.00;99.90;;;;;;5033284;28;20188;-59
2021/12/20 02:24:01;;;;;;;20.33;10.90;;;6.00;99.90;;;;;;5032460;28;20217;-59
2021/12/20 02:26:27;;;;;;;21.30;10.20;;;6.00;99.90;;;;;;5033138;28;20258;-59
2021/12/20 02:28:55;;;;;;;17.83;10.10;;;6.00;99.90;;;;;;5032462;28;20205;-59
2021/12/20 02:39:20;;;;;;;12.03;6.90;;;6.10;99.90;;;;;;5052300;28;20323;-59
2021/12/20 02:41:46;;;;;;;15.63;7.73;;;6.10;99.90;;;;;;5052341;28;20225;-59
2021/12/20 02:44:19;;;;;;;11.70;6.97;;;6.10;99.90;;;;;;5052229;28;20302;-59
2021/12/20 02:49:18;;;;;;;10.33;6.23;;;6.20;99.90;;;;;;5052201;28;20290;-59
2021/12/20 02:51:45;;;;;;;8.50;5.57;;;6.20;99.90;;;;;;5052181;28;20169;-59
2021/12/20 02:54:12;;;;;;;9.07;5.43;;;6.20;99.90;;;;;;5039912;28;20181;-59
2021/12/20 02:56:40;;;;;;;9.07;5.50;;;6.20;99.90;;;;;;5031989;28;20207;-58
2021/12/20 02:59:07;;;;;;;8.93;5.27;;;6.20;99.90;;;;;;5031835;28;20178;-59
2021/12/20 03:01:34;;;;;;;8.77;4.83;;;6.20;99.90;;;;;;5032003;28;20173;-59
2021/12/20 03:04:01;;;;;;;8.17;4.70;;;6.30;99.90;;;;;;5031707;28;20244;-59
2021/12/20 03:06:29;;;;;;;8.00;5.00;;;6.20;99.90;;;;;;5032239;28;20182;-59
2021/12/20 03:08:56;;;;;;;6.70;4.20;;;6.30;99.90;;;;;;5051349;28;20602;-59
2021/12/20 03:11:24;;;;;;;6.63;4.40;;;6.30;99.90;;;;;;5051853;28;20832;-59
2021/12/20 03:13:53;;;;;;;7.00;4.30;;;6.30;99.90;;;;;;5051818;28;20246;-59
2021/12/20 03:16:19;;;;;;;6.97;4.20;;;6.30;99.90;;;;;;5042734;28;20251;-59
2021/12/20 03:18:45;;;;;;;7.37;4.00;;;6.40;99.90;;;;;;5031672;28;20168;-59
2021/12/20 03:21:11;;;;;;;6.97;4.03;;;6.30;99.90;;;;;;5039055;28;20180;-59
2021/12/20 03:23:55;;;;;;;6.00;3.67;;;6.00;99.90;;;;;;4779992;22;22748;-60
2021/12/20 03:26:22;;;;;;;6.30;4.03;;;6.40;99.90;;;;;;5057476;22;20236;-60
2021/12/20 03:28:48;;;;;;;7.20;4.43;;;6.40;99.90;;;;;;5050413;28;20255;-60
2021/12/20 03:31:13;;;;;;;7.63;4.20;;;6.40;99.90;;;;;;5050875;28;20596;-60
2021/12/20 03:33:39;;;;;;;6.37;4.23;;;6.50;99.90;;;;;;5051347;28;20177;-60
2021/12/20 03:36:05;;;;;;;6.53;3.70;;;6.50;99.90;;;;;;5050933;28;20181;-60
2021/12/20 03:38:31;;;;;;;8.20;3.97;;;6.50;99.90;;;;;;5051204;28;20188;-59
2021/12/20 03:40:57;;;;;;;6.53;3.60;;;6.40;99.90;;;;;;5050806;28;20177;-60
2021/12/20 03:43:30;;;;;;;7.47;3.73;;;6.50;99.90;;;;;;5051030;28;20180;-60
2021/12/20 03:45:57;;;;;;;6.80;3.33;;;6.40;99.90;;;;;;5050929;28;20213;-60
2021/12/20 03:48:24;;;;;;;4.57;2.83;;;6.50;99.90;;;;;;5050825;28;20243;-60
2021/12/20 03:50:50;;;;;;;3.30;2.33;;;6.50;99.90;;;;;;5050999;28;20169;-60
2021/12/20 03:53:16;;;;;;;4.90;2.07;;;6.40;99.90;;;;;;5051097;28;20661;-59
2021/12/20 03:55:42;;;;;;;4.10;2.80;;;6.40;99.90;;;;;;5050848;28;20185;-59
2021/12/20 03:58:08;;;;;;;4.57;2.40;;;6.40;99.90;;;;;;5050858;28;20173;-60
2021/12/20 04:00:34;;;;;;;4.30;2.67;;;6.50;99.90;;;;;;5051058;28;20275;-60
2021/12/20 04:03:02;;;;;;;5.63;2.70;;;6.50;99.90;;;;;;5051002;28;20180;-60
2021/12/20 04:05:27;;;;;;;5.03;3.00;;;6.50;99.90;;;;;;5050387;28;20217;-60
2021/12/20 04:07:53;;;;;;;5.60;3.00;;;6.50;99.90;;;;;;5050979;28;20568;-60
2021/12/20 04:10:19;;;;;;;5.37;2.73;;;6.50;99.90;;;;;;5050914;28;20180;-60
2021/12/20 04:12:45;;;;;;;5.20;3.47;;;6.50;99.90;;;;;;5050906;28;20637;-60
2021/12/20 04:15:10;;;;;;;6.53;3.77;;;6.60;99.90;;;;;;5050430;28;20218;-60
2021/12/20 04:17:36;;;;;;;5.73;3.37;;;6.50;99.90;;;;;;5050901;28;20178;-60
2021/12/20 04:20:03;;;;;;;6.13;3.70;;;6.50;99.90;;;;;;5050903;28;20198;-60
2021/12/20 04:22:29;;;;;;;6.20;3.40;;;6.50;99.90;;;;;;5050619;28;20181;-60
2021/12/20 04:24:55;;;;;;;7.83;4.03;;;6.50;99.90;;;;;;5049919;28;20221;-61
2021/12/20 04:27:21;;;;;;;8.90;4.37;;;6.50;99.90;;;;;;5050809;28;20264;-59
2021/12/20 04:29:47;;;;;;;6.63;4.27;;;6.50;99.90;;;;;;5050904;28;20674;-59
2021/12/20 04:32:13;;;;;;;9.30;4.70;;;6.50;99.90;;;;;;5050702;28;20193;-60
2021/12/20 04:34:39;;;;;;;7.50;4.33;;;6.50;99.90;;;;;;5050233;28;20188;-60
2021/12/20 04:37:07;;;;;;;9.53;4.77;;;6.50;99.90;;;;;;5052744;28;20161;-63
2021/12/20 04:39:33;;;;;;;7.83;4.67;;;6.50;99.90;;;;;;5054783;28;20173;-59
2021/12/20 04:42:00;;;;;;;9.90;5.70;;;6.60;99.90;;;;;;5054089;28;20643;-58
2021/12/20 04:44:26;;;;;;;7.90;5.03;;;6.50;99.90;;;;;;5054063;28;20697;-58
2021/12/20 04:46:52;;;;;;;10.00;4.40;;;6.50;99.90;;;;;;5054445;28;20244;-58
2021/12/20 04:49:18;;;;;;;8.87;4.93;;;6.50;99.90;;;;;;5054171;28;20199;-58
2021/12/20 04:51:44;;;;;;;8.33;5.00;;;6.50;99.90;;;;;;5054102;28;20169;-58
2021/12/20 04:54:10;;;;;;;8.10;4.43;;;6.50;99.90;;;;;;5053487;28;20169;-59
2021/12/20 04:56:37;;;;;;;8.43;4.90;;;6.50;99.90;;;;;;5052675;28;20177;-58
2021/12/20 04:59:03;;;;;;;10.57;4.30;;;6.60;99.90;;;;;;5053972;28;20177;-58
2021/12/20 05:01:29;;;;;;;7.40;4.30;;;6.60;99.90;;;;;;5053815;28;20242;-58
2021/12/20 05:03:54;;;;;;;7.40;4.17;;;6.50;99.90;;;;;;5053601;28;20649;-58
2021/12/20 05:06:20;;;;;;;7.60;3.87;;;6.60;99.90;;;;;;5053758;28;20221;-58
2021/12/20 05:08:49;;;;;;;8.93;4.53;;;6.60;99.90;;;;;;5053848;28;20257;-59
2021/12/20 05:11:16;;;;;;;5.77;3.70;;;6.60;99.90;;;;;;5053706;28;20173;-59
2021/12/20 05:13:42;;;;;;;6.40;3.93;;;6.60;99.90;;;;;;5053607;28;20583;-59
2021/12/20 05:16:08;;;;;;;8.53;4.47;;;6.60;99.90;;;;;;5053583;28;20287;-59
2021/12/20 05:18:34;;;;;;;8.30;4.57;;;6.70;99.90;;;;;;5053726;28;20264;-58
2021/12/20 05:20:59;;;;;;;9.77;4.00;;;6.70;99.90;;;;;;5053809;28;20180;-58
2021/12/20 05:23:26;;;;;;;5.63;3.70;;;6.70;99.90;;;;;;5053368;28;20653;-58
2021/12/20 05:25:52;;;;;;;7.53;3.63;;;6.70;99.90;;;;;;5051554;28;20285;-59
2021/12/20 05:28:17;;;;;;;7.70;3.37;;;6.70;99.90;;;;;;5053199;28;20271;-59
2021/12/20 05:30:48;;;;;;;6.87;3.43;;;6.70;99.90;;;;;;5053466;28;20169;-59
2021/12/20 05:33:14;;;;;;;6.90;3.37;;;6.70;99.90;;;;;;5053110;28;20180;-59
2021/12/20 05:35:40;;;;;;;7.30;3.70;;;6.70;99.90;;;;;;5053078;28;20166;-59
2021/12/20 05:38:06;;;;;;;5.67;2.73;;;6.70;99.90;;;;;;5052780;28;20201;-59
2021/12/20 05:40:31;;;;;;;9.47;3.33;;;6.70;99.90;;;;;;5051071;28;20266;-59
2021/12/20 05:42:57;;;;;;;8.27;3.10;;;6.70;99.90;;;;;;5052600;28;20212;-59
2021/12/20 05:45:23;;;;;;;9.90;3.10;;;6.70;99.90;;;;;;5053177;28;20232;-59
2021/12/20 05:47:49;;;;;;;7.40;2.90;;;6.70;99.90;;;;;;5052802;28;20177;-58
2021/12/20 05:50:17;;;;;;;6.43;3.60;;;6.70;99.90;;;;;;5053386;28;20173;-58
2021/12/20 05:52:44;;;;;;;5.13;2.83;;;6.70;99.90;;;;;;5052454;28;20275;-59
2021/12/20 05:55:10;;;;;;;6.50;3.40;;;6.70;99.90;;;;;;5053146;28;20184;-58
2021/12/20 05:57:37;;;;;;;7.97;3.60;;;6.70;99.90;;;;;;5053116;28;20258;-59
2021/12/20 06:00:12;;;;;;;8.60;3.57;;;6.70;99.90;;;;;;5052847;28;20181;-59
2021/12/20 06:02:38;;;;;;;7.70;3.70;;;6.70;99.90;;;;;;5052542;28;20572;-59
2021/12/20 06:05:05;;;;;;;4.60;3.33;;;6.70;99.90;;;;;;5051330;28;20697;-59
2021/12/20 06:07:31;;;;;;;7.63;3.93;;;6.70;99.90;;;;;;5052739;28;20169;-59
2021/12/20 06:09:57;;;;;;;7.80;3.87;;;6.70;99.90;;;;;;5052376;28;20173;-59
2021/12/20 06:12:23;;;;;;;10.10;4.50;;;6.70;99.90;;;;;;5052525;28;20195;-59
2021/12/20 06:14:48;;;;;;;5.83;3.47;;;6.70;99.90;;;;;;5049468;28;20672;-59
2021/12/20 06:17:14;;;;;;;8.60;3.80;;;6.70;99.90;;;;;;5052414;28;20177;-59
2021/12/20 06:19:40;;;;;;;6.83;3.73;;;6.70;99.90;;;;;;5052421;28;20177;-58
2021/12/20 06:22:10;;;;;;;7.20;3.63;;;6.70;99.90;;;;;;5051770;28;20181;-59
2021/12/20 06:24:36;;;;;;;7.40;3.00;;;6.70;99.90;;;;;;5052161;28;20295;-58
2021/12/20 06:27:02;;;;;;;7.80;3.07;;;6.70;99.90;;;;;;5052169;28;20600;-58
2021/12/20 06:29:28;;;;;;;7.60;2.37;;;6.70;99.90;;;;;;5051229;28;20332;-58
2021/12/20 06:31:54;;;;;;;4.50;2.30;;;6.60;99.90;;;;;;5052436;28;20281;-58
2021/12/20 06:34:20;;;;;;;4.43;2.90;;;6.60;99.90;;;;;;5052146;28;20617;-58
2021/12/20 06:36:46;;;;;;;7.00;2.60;;;6.60;99.90;;;;;;5052127;28;20666;-58
2021/12/20 06:39:17;;;;;;;2.63;1.50;;;6.70;99.90;;;;;;5052187;28;20240;-59
2021/12/20 06:41:53;;;;;;;4.23;1.30;;;6.60;99.90;;;;;;5052040;28;20169;-59
2021/12/20 06:44:19;;;;;;;2.07;0.93;;;6.60;99.90;;;;;;5051825;28;20177;-59
2021/12/20 06:46:45;;;;;;;1.80;1.10;;;6.60;99.90;;;;;;5052075;28;20640;-59
2021/12/20 06:49:11;;;;;;;1.77;1.00;;;6.60;99.90;;;;;;5052162;28;20181;-59
2021/12/20 06:51:41;;;;;;;2.33;1.10;;;6.60;99.90;;;;;;5051545;28;20230;-59
2021/12/20 06:54:08;;;;;;;3.63;1.57;;;6.70;99.90;;;;;;5051874;28;20173;-61
2021/12/20 06:56:34;;;;;;;2.10;1.20;;;6.70;99.90;;;;;;5051701;28;20184;-59
2021/12/20 06:59:00;;;;;;;1.97;1.40;;;6.70;99.90;;;;;;5051148;28;20180;-58
2021/12/20 07:01:26;;;;;;;5.53;1.47;;;6.70;99.90;;;;;;5051189;28;20182;-58
2021/12/20 07:03:52;;;;;;;2.93;1.40;;;6.70;99.90;;;;;;5051700;28;20238;-58
2021/12/20 07:06:18;;;;;;;2.37;1.57;;;6.00;99.90;;;;;;5050320;28;20653;-58
2021/12/20 07:08:44;;;;;;;3.83;1.60;;;6.70;99.90;;;;;;5051302;28;20192;-58
2021/12/20 07:11:10;;;;;;;4.23;1.83;;;6.70;99.90;;;;;;5051285;28;20183;-58
2021/12/20 07:13:36;;;;;;;4.10;2.10;;;6.70;99.90;;;;;;5051332;28;20174;-58
2021/12/20 07:16:02;;;;;;;2.90;2.20;;;6.70;99.90;;;;;;5051345;28;20214;-58
2021/12/20 07:18:28;;;;;;;3.53;2.30;;;6.70;99.90;;;;;;5051249;28;20177;-58
2021/12/20 07:20:54;;;;;;;7.40;2.90;;;6.70;99.90;;;;;;5051215;28;20635;-58
2021/12/20 07:23:21;;;;;;;8.80;2.80;;;6.70;99.90;;;;;;5051235;28;20184;-58
2021/12/20 07:25:47;;;;;;;5.77;2.40;;;6.70;99.90;;;;;;5050937;28;20639;-58
2021/12/20 07:28:14;;;;;;;4.70;2.33;;;6.60;99.90;;;;;;5051057;28;20223;-59
2021/12/20 07:30:40;;;;;;;5.70;2.83;;;6.60;99.90;;;;;;5050715;28;20177;-59
2021/12/20 07:33:07;;;;;;;3.77;2.53;;;6.60;99.90;;;;;;5050456;28;20226;-59
2021/12/20 07:35:34;;;;;;;6.90;3.07;;;6.50;99.90;;;;;;5050930;28;20173;-59
2021/12/20 07:38:01;;;;;;;4.53;2.90;;;6.60;99.90;;;;;;5050769;28;20181;-59
2021/12/20 07:40:27;;;;;;;6.87;3.27;;;6.70;99.90;;;;;;5050546;28;20177;-61
2021/12/20 07:42:53;;;;;;;4.07;2.77;;;6.60;99.90;;;;;;5050548;28;20504;-61
2021/12/20 07:45:19;;;;;;;6.77;3.30;;;6.60;99.90;;;;;;5049741;28;20586;-61
2021/12/20 07:47:49;;;;;;;4.90;2.90;;;6.70;99.90;;;;;;5050696;28;20173;-62
2021/12/20 07:50:17;;;;;;;4.93;2.80;;;6.70;99.90;;;;;;5050924;28;20566;-62
2021/12/20 07:52:43;;;;;;;5.00;3.23;;;6.70;99.90;;;;;;5050498;28;20649;-62
2021/12/20 07:55:09;;;;;;;6.90;2.90;;;6.70;99.90;;;;;;5050349;28;20795;-62
2021/12/20 07:57:36;;;;;;;5.53;2.63;;;6.60;99.90;;;;;;5050065;28;20647;-59
2021/12/20 08:00:04;;;;;;;7.47;3.30;;;6.60;99.90;;;;;;5050889;28;20180;-59
2021/12/20 08:02:30;;;;;;;4.20;2.57;;;6.60;99.90;;;;;;5049228;28;20655;-59
2021/12/20 08:04:56;;;;;;;3.97;2.40;;;6.60;99.90;;;;;;5050467;28;20217;-59
2021/12/20 08:07:22;;;;;;;4.53;2.70;;;6.60;99.90;;;;;;5050773;28;20192;-59
2021/12/20 08:09:49;;;;;;;3.50;2.43;;;6.60;99.90;;;;;;5050411;28;20717;-59
2021/12/20 08:12:15;;;;;;;5.43;2.67;;;6.60;99.90;;;;;;5050264;28;20181;-58
2021/12/20 08:14:41;;;;;;;3.47;2.50;;;6.60;99.90;;;;;;5050646;28;20174;-61
2021/12/20 08:17:07;;;;;;;6.23;2.50;;;6.60;99.90;;;;;;5050785;28;20256;-63
2021/12/20 08:19:33;;;;;;;3.13;2.37;;;6.60;99.90;;;;;;5050256;28;20183;-65
2021/12/20 08:21:58;;;;;;;4.07;2.20;;;6.60;99.90;;;;;;5048122;28;20656;-64
2021/12/20 08:24:24;;;;;;;3.40;1.80;;;6.60;99.90;;;;;;5048843;28;20197;-64
2021/12/20 08:26:50;;;;;;;4.47;1.90;;;6.60;99.90;;;;;;5050608;28;20654;-65
2021/12/20 08:29:16;;;;;;;4.30;1.53;;;6.60;99.90;;;;;;5050723;28;20260;-66
2021/12/20 08:31:41;;;;;;;2.87;1.43;;;6.70;99.90;;;;;;5050808;28;20192;-65
2021/12/20 08:34:07;;;;;;;3.80;1.40;;;6.70;99.90;;;;;;5049528;28;20165;-65
2021/12/20 08:36:33;;;;;;;2.07;1.10;;;6.70;99.90;;;;;;5050187;28;20213;-64
2021/12/20 08:38:59;;;;;;;4.57;1.20;;;6.60;99.90;;;;;;5049908;28;20267;-65
2021/12/20 08:41:25;;;;;;;3.23;1.10;;;6.70;99.90;;;;;;5050663;28;20205;-64
2021/12/20 08:43:50;;;;;;;2.87;0.83;;;6.70;99.90;;;;;;5050544;28;20165;-64
2021/12/20 08:46:18;;;;;;;1.20;0.83;;;6.70;99.90;;;;;;5050250;28;20680;-64
2021/12/20 08:48:45;;;;;;;1.07;0.70;;;6.70;99.90;;;;;;5050069;28;20276;-64
2021/12/20 08:51:12;;;;;;;1.13;0.83;;;6.70;99.90;;;;;;5050333;28;20262;-65
2021/12/20 08:53:39;;;;;;;5.10;1.00;;;6.70;99.90;;;;;;5050285;28;20204;-65
2021/12/20 08:56:06;;;;;;;1.00;0.70;;;6.70;99.90;;;;;;5050420;28;20185;-62
2021/12/20 08:58:33;;;;;;;3.53;0.90;;;6.70;99.90;;;;;;5050412;28;20267;-64
2021/12/20 09:00:59;;;;;;;1.97;0.77;;;6.70;99.90;;;;;;5049143;28;20260;-64
2021/12/20 09:03:27;;;;;;;1.97;1.00;;;6.70;99.90;;;;;;5049818;28;20208;-63
2021/12/20 09:05:53;;;;;;;4.17;1.00;;;6.70;99.90;;;;;;5048748;28;20259;-60
2021/12/20 09:08:20;;;;;;;3.77;1.40;;;6.80;99.90;;;;;;5048756;28;20197;-61
2021/12/20 09:10:46;;;;;;;3.10;0.90;;;6.80;99.90;;;;;;5040488;28;20642;-61
2021/12/20 09:13:12;;;;;;;2.07;1.20;;;6.80;99.90;;;;;;5047124;28;20223;-61
2021/12/20 09:15:38;;;;;;;1.97;1.13;;;6.90;99.90;;;;;;5049886;28;20181;-61
2021/12/20 09:18:05;;;;;;;2.83;1.67;;;6.90;99.90;;;;;;5049748;28;20644;-61
2021/12/20 09:20:31;;;;;;;4.50;1.77;;;6.90;99.90;;;;;;5049900;28;20177;-61
2021/12/20 09:23:04;;;;;;;3.40;1.97;;;6.90;99.90;;;;;;5050529;28;20177;-61
2021/12/20 09:25:31;;;;;;;3.07;2.00;;;6.90;99.90;;;;;;5053463;28;20283;-61
2021/12/20 09:27:59;;;;;;;4.17;2.10;;;6.90;99.90;;;;;;5053297;28;20245;-61
2021/12/20 09:30:28;;;;;;;3.57;2.30;;;6.90;99.90;;;;;;5053285;28;20260;-57
2021/12/20 09:32:54;;;;;;;4.07;2.40;;;6.90;99.90;;;;;;5053324;28;20264;-60
2021/12/20 09:35:21;;;;;;;7.40;3.03;;;7.00;99.90;;;;;;5053354;28;20220;-57
2021/12/20 09:37:50;;;;;;;4.27;2.93;;;7.00;99.90;;;;;;5052433;28;20173;-57
2021/12/20 09:40:20;;;;;;;7.57;3.23;;;7.00;99.90;;;;;;5053505;28;20211;-57
2021/12/20 09:42:52;;;;;;;5.30;3.33;;;7.00;99.90;;;;;;5053398;28;20173;-57
2021/12/20 09:45:20;;;;;;;6.27;3.23;;;7.00;99.90;;;;;;5051938;28;20205;-57
2021/12/20 09:47:47;;;;;;;9.47;3.70;;;7.00;99.90;;;;;;5053323;28;20271;-57
2021/12/20 09:50:14;;;;;;;8.20;3.00;;;7.00;99.90;;;;;;5053249;28;20176;-57
2021/12/20 09:52:42;;;;;;;7.10;3.80;;;7.00;99.90;;;;;;5053298;28;20185;-58
2021/12/20 09:55:09;;;;;;;8.43;3.80;;;6.90;99.90;;;;;;5053093;28;20180;-58
2021/12/20 09:57:36;;;;;;;6.30;3.27;;;7.00;99.90;;;;;;5053231;28;20192;-57
2021/12/20 10:00:05;;;;;;;5.30;3.13;;;7.00;99.90;;;;;;5053204;28;20177;-58
2021/12/20 10:02:31;;;;;;;6.87;3.47;;;7.00;99.90;;;;;;5052764;28;20169;-57
2021/12/20 10:04:57;;;;;;;8.83;3.70;;;6.90;99.90;;;;;;5052856;28;20205;-57
2021/12/20 10:07:28;;;;;;;7.13;3.37;;;6.90;99.90;;;;;;5052407;28;20593;-58
2021/12/20 10:09:54;;;;;;;4.93;2.50;;;6.90;99.90;;;;;;5052923;28;20208;-57
2021/12/20 10:12:26;;;;;;;5.97;2.37;;;6.90;99.90;;;;;;5052915;28;20180;-57
2021/12/20 10:15:07;;;;;;;8.83;2.67;;;6.90;99.90;;;;;;5052846;28;20165;-59
2021/12/20 10:17:55;;;;;;;5.73;2.10;;;6.90;99.90;;;;;;5052567;28;20169;-57
2021/12/20 10:20:27;;;;;;;5.00;2.60;;;6.90;99.90;;;;;;5052802;28;20173;-57
2021/12/20 10:23:06;;;;;;;9.10;2.73;;;6.90;99.90;;;;;;5052022;28;20659;-57
2021/12/20 10:25:32;;;;;;;5.37;2.50;;;6.90;99.90;;;;;;5052266;28;20306;-56
2021/12/20 10:28:15;;;;;;;4.60;2.47;;;6.90;99.90;;;;;;5051031;28;20188;-57
2021/12/20 10:30:44;;;;;;;4.20;2.33;;;6.90;99.90;;;;;;5042914;28;20257;-57
2021/12/20 10:33:20;;;;;;;3.00;2.03;;;6.90;99.90;;;;;;5051766;28;20644;-57
2021/12/20 10:35:52;;;;;;;4.70;2.20;;;7.00;99.90;;;;;;5048449;28;20179;-57
2021/12/20 10:38:18;;;;;;;7.93;2.27;;;7.00;99.90;;;;;;5051365;28;20180;-57
2021/12/20 10:40:54;;;;;;;4.50;1.73;;;7.00;99.90;;;;;;5052016;28;20533;-58
2021/12/20 10:43:23;;;;;;;2.47;1.40;;;7.10;99.90;;;;;;5051466;28;20172;-58
2021/12/20 10:45:51;;;;;;;1.83;1.03;;;7.10;99.90;;;;;;5051954;28;20290;-61
2021/12/20 10:48:17;;;;;;;2.77;1.00;;;6.90;99.90;;;;;;5052244;28;20231;-61
2021/12/20 10:50:43;;;;;;;3.57;1.13;;;6.90;99.90;;;;;;5051420;28;20189;-60
2021/12/20 10:53:22;;;;;;;2.00;0.97;;;6.90;99.90;;;;;;5051860;28;20185;-60
2021/12/20 10:55:54;;;;;;;2.17;0.90;;;7.00;99.90;;;;;;5051510;28;20195;-60
2021/12/20 10:58:28;;;;;;;1.57;0.70;;;7.00;99.90;;;;;;5052060;28;20627;-61
2021/12/20 11:03:53;;;;;;;2.17;0.80;;;6.90;99.90;;;;;;5050453;28;20184;-60
2021/12/20 11:11:35;;;;;;;2.10;1.00;;;7.10;99.90;;;;;;5050052;28;20210;-60
2021/12/20 11:14:03;;;;;;;1.23;0.80;;;7.10;99.90;;;;;;5049695;28;20164;-59
2021/12/20 11:16:34;;;;;;;3.83;0.80;;;7.10;99.90;;;;;;5050656;28;20526;-60
2021/12/20 11:19:17;;;;;;;2.57;0.73;;;7.00;99.90;;;;;;5051405;28;20639;-60
2021/12/20 11:22:18;;;;;;;4.23;1.00;;;6.90;99.90;;;;;;5051106;28;20176;-60
2021/12/20 11:24:50;;;;;;;1.73;0.73;;;7.00;99.90;;;;;;5044345;28;20228;-61
2021/12/20 11:27:23;;;;;;;2.23;1.00;;;7.10;99.90;;;;;;5051512;28;20276;-60
2021/12/20 11:29:52;;;;;;;1.43;0.90;;;7.20;99.90;;;;;;5051035;28;20655;-60
2021/12/20 11:32:20;;;;;;;2.57;1.20;;;7.20;99.90;;;;;;5051146;28;20203;-60
2021/12/20 11:34:46;;;;;;;1.20;1.00;;;7.20;99.90;;;;;;5051362;28;20632;-60
2021/12/20 11:37:18;;;;;;;2.17;0.73;;;7.20;99.90;;;;;;5050609;28;20176;-60
2021/12/20 11:39:46;;;;;;;0.97;0.87;;;7.20;99.90;;;;;;5050987;28;20171;-60
2021/12/20 11:42:13;;;;;;;1.10;0.90;;;7.10;99.90;;;;;;5051216;28;20174;-60
2021/12/20 11:44:41;;;;;;;2.50;1.00;;;7.10;99.90;;;;;;5050346;28;20215;-58
2021/12/20 11:47:28;;;;;;;1.93;0.90;;;7.00;99.90;;;;;;5050370;28;20717;-58
2021/12/20 11:50:09;;;;;;;2.00;0.90;;;7.10;99.90;;;;;;5051019;28;20728;-61
2021/12/20 11:52:41;;;;;;;1.90;1.10;;;7.20;99.90;;;;;;5050872;28;20197;-60
2021/12/20 11:55:19;;;;;;;3.27;1.00;;;7.30;99.90;;;;;;5050840;28;20177;-56
2021/12/20 11:57:57;;;;;;;3.53;1.07;;;7.30;99.90;;;;;;5049469;28;20235;-56
2021/12/20 12:00:35;;;;;;;3.23;1.30;;;7.20;99.90;;;;;;5050743;28;20248;-59
2021/12/20 12:03:07;;;;;;;2.27;1.20;;;7.10;99.90;;;;;;5050933;28;20169;-56
2021/12/20 12:05:48;;;;;;;1.83;1.20;;;7.10;99.90;;;;;;5050565;28;20291;-57
2021/12/20 12:08:37;;;;;;;2.20;1.40;;;7.10;99.90;;;;;;5050537;28;20177;-57
2021/12/20 12:11:09;;;;;;;3.83;1.30;;;7.10;99.90;;;;;;5050370;28;20196;-57
2021/12/20 12:13:47;;;;;;;3.13;1.63;;;7.00;99.90;;;;;;5050552;28;20238;-57
2021/12/20 12:16:28;;;;;;;2.77;1.47;;;7.00;99.90;;;;;;5050446;28;20647;-57
2021/12/20 12:19:01;;;;;;;4.70;1.77;;;7.00;99.90;;;;;;5050690;28;20177;-57
2021/12/20 12:21:33;;;;;;;3.13;2.00;;;7.00;99.90;;;;;;5050660;28;20260;-58
2021/12/20 12:24:04;;;;;;;3.27;2.20;;;7.00;99.90;;;;;;5051029;28;20200;-61
2021/12/20 12:26:32;;;;;;;3.50;2.20;;;6.90;99.90;;;;;;5050275;28;20259;-61
2021/12/20 12:28:58;;;;;;;4.20;2.40;;;7.00;99.90;;;;;;5050677;28;20188;-62
2021/12/20 12:31:26;;;;;;;2.73;2.20;;;7.00;99.90;;;;;;5050426;28;20184;-62
2021/12/20 12:34:09;;;;;;;4.40;2.57;;;7.00;99.90;;;;;;5050516;28;20196;-59
2021/12/20 12:36:41;;;;;;;4.90;2.57;;;7.10;99.90;;;;;;5049702;28;20203;-60
2021/12/20 12:39:25;;;;;;;4.10;2.93;;;7.00;99.90;;;;;;5050187;28;20181;-60
2021/12/20 12:41:59;;;;;;;6.13;3.10;;;7.00;99.90;;;;;;5049119;28;20664;-61
2021/12/20 12:44:31;;;;;;;5.47;3.53;;;7.00;99.90;;;;;;5049988;28;20205;-62
2021/12/20 12:47:13;;;;;;;4.60;3.10;;;7.00;99.90;;;;;;5048245;28;20672;-62
2021/12/20 12:49:50;;;;;;;5.23;3.43;;;7.10;99.90;;;;;;5049948;28;20283;-62
2021/12/20 12:52:16;;;;;;;6.60;3.83;;;7.10;99.90;;;;;;5050093;28;20223;-61
2021/12/20 12:55:06;;;;;;;5.37;3.43;;;7.10;99.90;;;;;;5050362;28;20166;-62
2021/12/20 12:57:35;;;;;;;5.43;3.83;;;7.10;99.90;;;;;;5051360;28;20180;-61
2021/12/20 13:00:08;;;;;;;6.00;3.57;;;7.10;99.90;;;;;;5054269;28;20173;-62
2021/12/20 13:02:37;;;;;;;5.60;3.83;;;7.10;99.90;;;;;;5054210;28;20689;-61
2021/12/20 13:05:05;;;;;;;6.57;4.13;;;6.70;99.90;;;;;;5054130;28;20230;-61
2021/12/20 13:07:55;;;;;;;4.83;3.63;;;7.20;99.90;;;;;;5054296;28;20181;-61
2021/12/20 13:10:41;;;;;;;6.13;4.40;;;7.40;99.90;;;;;;5054089;28;20765;-61
2021/12/20 13:13:22;;;;;;;7.23;4.47;;;7.10;99.90;;;;;;5053996;28;20279;-61
2021/12/20 13:16:01;;;;;;;8.43;4.57;;;7.10;99.90;;;;;;5053986;28;20185;-62
2021/12/20 13:18:38;;;;;;;8.47;4.57;;;7.20;99.90;;;;;;5053969;28;20550;-60
2021/12/20 13:21:08;;;;;;;6.80;4.87;;;7.20;99.90;;;;;;5053920;28;20203;-60
2021/12/20 13:23:41;;;;;;;8.23;4.57;;;7.30;99.90;;;;;;5053880;28;20215;-59
2021/12/20 13:26:09;;;;;;;4.93;3.63;;;7.30;99.90;;;;;;5052644;28;20283;-60